Senges, Brazil
Current Conditions -  °F | °C
As of 7:25 PM on Friday 28 Nov 2014 (Local Time) from SBBI Reporting Station
Broken Clouds Broken Clouds  
Wind Chill: 66°   Ceiling: 800
Heat Index: 66°   Visibility: 6mi
Dew Point: 61°   Wind: 12mph
Humidity: 83%   Direction: 120°ESE
Pressure: 30.09"   Gusts: 23mph
Location:  24.11°S, 49.46°W
Report Text: SBBI 282125Z 12010G20KT 9999 BKN008 BKN010 19/16 Q1019
Loading
Personal Weather Stations






























Interactive Weather Map New forecast layout! Learn more

10-Day Weather Forecast

Advertisements
Track Severe Weather on mobile